createdAt,value
2023-05-11T00:01:59.573Z,99671.94
2023-05-11T00:04:26.225Z,99666.56
2023-05-11T00:06:52.895Z,99667.13
2023-05-11T00:09:19.350Z,99666.41
2023-05-11T00:11:45.829Z,99676.66
2023-05-11T00:14:12.209Z,99671.81
2023-05-11T00:16:38.640Z,99667.66
2023-05-11T00:19:05.442Z,99668.75
2023-05-11T00:21:32.277Z,99675.13
2023-05-11T00:23:59.810Z,99677.47
2023-05-11T00:26:26.748Z,99670.84
2023-05-11T00:28:53.263Z,99666.44
2023-05-11T00:31:20.380Z,99660.78
2023-05-11T00:33:46.824Z,99661.31
2023-05-11T00:36:13.250Z,99658.91
2023-05-11T00:38:42.628Z,99666.38
2023-05-11T00:41:10.055Z,99657.13
2023-05-11T00:43:36.528Z,99658.22
2023-05-11T00:46:03.733Z,99659.38
2023-05-11T00:48:30.757Z,99664.84
2023-05-11T00:50:59.315Z,99655.97
2023-05-11T00:53:25.791Z,99664.56
2023-05-11T00:55:54.011Z,99667.72
2023-05-11T00:58:20.636Z,99667.91
2023-05-11T01:00:50.011Z,99665.03
2023-05-11T01:03:17.020Z,99665.38
2023-05-11T01:06:01.505Z,99670.47
2023-05-11T01:08:40.572Z,99670.81
2023-05-11T01:11:16.621Z,99664.44
2023-05-11T01:13:52.358Z,99662.75
2023-05-11T01:16:21.377Z,99663.38
2023-05-11T01:19:04.262Z,99661.31
2023-05-11T01:21:35.400Z,99666.78
2023-05-11T01:24:27.096Z,99667.31
2023-05-11T01:27:08.977Z,99663.00
2023-05-11T01:30:05.155Z,99664.44
2023-05-11T01:32:34.427Z,99672.78
2023-05-11T01:35:11.303Z,99667.84
2023-05-11T01:37:41.737Z,99668.66
2023-05-11T01:40:16.776Z,99674.34
2023-05-11T01:43:05.211Z,99676.94
2023-05-11T01:45:33.782Z,99674.97
2023-05-11T01:48:03.521Z,99671.28
2023-05-11T01:50:31.886Z,99675.59
2023-05-11T01:53:01.040Z,99675.34
2023-05-11T01:55:28.391Z,99669.34
2023-05-11T01:57:55.869Z,99666.91
2023-05-11T02:00:22.622Z,99675.84
2023-05-11T02:02:49.673Z,99684.47
2023-05-11T02:05:21.268Z,99674.31
2023-05-11T02:07:50.545Z,99664.94
2023-05-11T02:10:19.055Z,99674.00
2023-05-11T02:12:46.796Z,99677.41
2023-05-11T02:15:13.799Z,99675.06
2023-05-11T02:17:40.911Z,99677.84
2023-05-11T02:20:08.679Z,99677.03
2023-05-11T02:22:36.003Z,99673.72
2023-05-11T02:25:04.023Z,99676.31
2023-05-11T02:27:30.561Z,99682.22
2023-05-11T02:29:57.872Z,99679.44
2023-05-11T02:32:25.658Z,99673.69
2023-05-11T02:35:01.941Z,99672.56
2023-05-11T02:37:30.411Z,99673.97
2023-05-11T02:40:03.697Z,99672.13
2023-05-11T02:42:36.628Z,99671.44
2023-05-11T02:45:09.369Z,99669.81
2023-05-11T02:47:42.793Z,99673.06
2023-05-11T02:50:09.975Z,99672.41
2023-05-11T02:52:44.978Z,99676.44
2023-05-11T02:55:13.597Z,99678.75
2023-05-11T02:57:40.148Z,99681.09
2023-05-11T03:00:08.322Z,99677.03
2023-05-11T03:02:35.161Z,99674.38
2023-05-11T03:05:01.716Z,99671.22
2023-05-11T03:07:28.209Z,99676.34
2023-05-11T03:09:55.073Z,99673.91
2023-05-11T03:12:21.614Z,99677.75
2023-05-11T03:14:48.271Z,99674.25
2023-05-11T03:17:15.939Z,99677.38
2023-05-11T03:19:42.468Z,99677.75
2023-05-11T03:22:10.117Z,99676.22
2023-05-11T03:24:36.547Z,99670.47
2023-05-11T03:27:04.385Z,99681.22
2023-05-11T03:29:31.790Z,99677.38
2023-05-11T03:31:58.375Z,99676.59
2023-05-11T03:34:24.863Z,99677.13
2023-05-11T03:36:52.694Z,99678.13
2023-05-11T03:39:20.225Z,99673.69
2023-05-11T03:41:49.767Z,99672.00
2023-05-11T03:44:19.913Z,99674.50
2023-05-11T03:46:47.869Z,99676.06
2023-05-11T03:49:15.673Z,99678.78
2023-05-11T03:51:42.540Z,99675.53
2023-05-11T03:54:08.975Z,99673.44
2023-05-11T03:56:36.674Z,99676.09
2023-05-11T03:59:04.182Z,99672.78
2023-05-11T04:01:30.902Z,99678.38
2023-05-11T04:03:57.712Z,99678.63
2023-05-11T04:06:24.258Z,99671.78
2023-05-11T04:08:50.777Z,99675.84
2023-05-11T04:11:17.273Z,99672.16
2023-05-11T04:13:43.640Z,99675.38
2023-05-11T04:16:10.157Z,99680.38
2023-05-11T04:18:36.675Z,99680.50
2023-05-11T04:21:03.147Z,99674.63
2023-05-11T04:23:30.552Z,99683.13
2023-05-11T04:25:57.525Z,99680.84
2023-05-11T04:28:27.534Z,99679.00
2023-05-11T04:30:56.366Z,99678.94
2023-05-11T04:33:23.495Z,99678.94
2023-05-11T04:35:51.529Z,99684.75
2023-05-11T04:38:18.978Z,99682.34
2023-05-11T04:40:45.647Z,99686.06
2023-05-11T04:43:12.013Z,99693.78
2023-05-11T04:45:38.394Z,99689.25
2023-05-11T04:48:05.294Z,99694.44
2023-05-11T04:50:32.246Z,99686.72
2023-05-11T04:52:58.682Z,99689.31
2023-05-11T04:55:24.998Z,99687.16
2023-05-11T04:57:51.513Z,99685.75
2023-05-11T05:00:18.792Z,99684.28
2023-05-11T05:02:45.491Z,99691.59
2023-05-11T05:05:12.000Z,99694.31
2023-05-11T05:07:38.620Z,99697.53
2023-05-11T05:10:08.799Z,99694.56
2023-05-11T05:12:36.808Z,99691.13
2023-05-11T05:15:03.898Z,99694.97
2023-05-11T05:17:30.301Z,99690.50
2023-05-11T05:19:57.968Z,99690.78
2023-05-11T05:22:25.280Z,99689.19
2023-05-11T05:24:51.802Z,99700.63
2023-05-11T05:27:18.252Z,99699.16
2023-05-11T05:29:44.710Z,99706.78
2023-05-11T05:32:11.237Z,99707.25
2023-05-11T05:34:37.673Z,99694.44
2023-05-11T05:37:04.146Z,99700.13
2023-05-11T05:39:30.733Z,99701.47
2023-05-11T05:41:58.102Z,99701.00
2023-05-11T05:44:24.492Z,99710.78
2023-05-11T05:46:50.952Z,99706.47
2023-05-11T05:49:17.344Z,99714.03
2023-05-11T05:51:44.031Z,99722.53
2023-05-11T05:54:11.286Z,99715.06
2023-05-11T05:56:37.779Z,99719.94
2023-05-11T05:59:04.102Z,99714.03
2023-05-11T06:01:30.543Z,99727.31
2023-05-11T06:03:57.101Z,99718.56
2023-05-11T06:06:23.609Z,99710.50
2023-05-11T06:08:49.987Z,99713.69
2023-05-11T06:11:16.424Z,99707.19
2023-05-11T06:13:43.844Z,99702.38
2023-05-11T06:16:10.769Z,99709.66
2023-05-11T06:18:37.165Z,99714.44
2023-05-11T06:21:03.575Z,99716.31
2023-05-11T06:23:29.987Z,99720.56
2023-05-11T06:25:56.438Z,99718.81
2023-05-11T06:28:26.033Z,99717.38
2023-05-11T06:30:52.705Z,99716.34
2023-05-11T06:33:19.138Z,99718.38
2023-05-11T06:35:47.588Z,99726.81
2023-05-11T06:38:14.001Z,99721.78
2023-05-11T06:40:40.816Z,99724.84
2023-05-11T06:43:07.269Z,99720.66
2023-05-11T06:45:33.949Z,99719.78
2023-05-11T06:48:00.828Z,99726.63
2023-05-11T06:50:27.795Z,99720.50
2023-05-11T06:52:54.560Z,99719.06
2023-05-11T06:55:21.118Z,99721.31
2023-05-11T06:57:47.614Z,99708.28
2023-05-11T07:00:14.598Z,99719.88
2023-05-11T07:02:41.323Z,99720.97
2023-05-11T07:05:08.166Z,99719.19
2023-05-11T07:07:34.650Z,99722.91
2023-05-11T07:10:01.384Z,99714.91
2023-05-11T07:12:27.828Z,99725.00
2023-05-11T07:14:54.312Z,99710.81
2023-05-11T07:17:20.791Z,99721.28
2023-05-11T07:19:47.250Z,99729.59
2023-05-11T07:22:15.037Z,99722.28
2023-05-11T07:24:42.286Z,99732.38
2023-05-11T07:27:08.641Z,99722.22
2023-05-11T07:29:35.195Z,99735.84
2023-05-11T07:32:02.423Z,99730.56
2023-05-11T07:34:28.957Z,99735.09
2023-05-11T07:36:55.609Z,99729.44
2023-05-11T07:39:22.202Z,99735.78
2023-05-11T07:41:48.558Z,99737.28
2023-05-11T07:44:15.571Z,99738.09
2023-05-11T07:46:42.100Z,99733.34
2023-05-11T07:49:17.055Z,99736.53
2023-05-11T07:51:47.127Z,99735.19
2023-05-11T07:54:13.755Z,99731.28
2023-05-11T07:56:40.334Z,99727.53
2023-05-11T07:59:06.804Z,99730.78
2023-05-11T08:01:33.490Z,99728.94
2023-05-11T08:04:00.365Z,99744.47
2023-05-11T08:06:27.390Z,99733.41
2023-05-11T08:08:53.843Z,99737.13
2023-05-11T08:11:20.840Z,99736.72
2023-05-11T08:13:47.448Z,99741.69
2023-05-11T08:16:14.077Z,99747.72
2023-05-11T08:18:40.660Z,99747.66
2023-05-11T08:21:07.598Z,99741.22
2023-05-11T08:23:34.197Z,99738.63
2023-05-11T08:26:01.308Z,99744.84
2023-05-11T08:28:27.779Z,99744.34
2023-05-11T08:30:58.512Z,99748.41
2023-05-11T08:33:37.582Z,99742.25
2023-05-11T08:36:06.351Z,99741.28
2023-05-11T08:38:33.423Z,99735.78
2023-05-11T08:41:01.793Z,99738.31
2023-05-11T08:43:29.204Z,99738.72
2023-05-11T08:45:58.158Z,99734.34
2023-05-11T08:48:24.680Z,99730.25
2023-05-11T08:50:51.982Z,99734.50
2023-05-11T08:53:18.817Z,99736.03
2023-05-11T08:55:46.814Z,99735.53
2023-05-11T08:58:15.159Z,99743.88
2023-05-11T09:00:41.985Z,99743.63
2023-05-11T09:03:09.127Z,99729.25
2023-05-11T09:05:36.559Z,99743.16
2023-05-11T09:08:04.433Z,99729.66
2023-05-11T09:10:30.953Z,99738.16
2023-05-11T09:12:57.468Z,99735.97
2023-05-11T09:15:23.981Z,99750.59
2023-05-11T09:17:50.456Z,99759.31
2023-05-11T09:20:26.921Z,99734.56
2023-05-11T09:22:53.824Z,99749.13
2023-05-11T09:25:20.658Z,99742.97
2023-05-11T09:27:48.145Z,99741.34
2023-05-11T09:30:22.162Z,99726.78
2023-05-11T09:32:59.893Z,99726.81
2023-05-11T09:35:31.043Z,99725.50
2023-05-11T09:38:06.879Z,99729.19
2023-05-11T09:40:37.487Z,99729.78
2023-05-11T09:43:16.433Z,99732.31
2023-05-11T09:45:45.124Z,99720.44
2023-05-11T09:48:21.004Z,99733.53
2023-05-11T09:50:52.218Z,99728.00
2023-05-11T09:53:18.838Z,99730.44
2023-05-11T09:55:54.235Z,99726.28
2023-05-11T09:58:20.958Z,99730.56
2023-05-11T10:00:51.266Z,99731.44
2023-05-11T10:03:18.676Z,99728.72
2023-05-11T10:05:59.484Z,99725.19
2023-05-11T10:08:30.813Z,99719.47
2023-05-11T10:10:57.842Z,99713.81
2023-05-11T10:13:24.722Z,99720.03
2023-05-11T10:15:54.763Z,99728.03
2023-05-11T10:18:21.526Z,99719.72
2023-05-11T10:20:48.616Z,99711.41
2023-05-11T10:23:17.631Z,99719.63
2023-05-11T10:25:44.607Z,99738.44
2023-05-11T10:28:11.000Z,99724.63
2023-05-11T10:30:37.892Z,99721.31
2023-05-11T10:33:06.797Z,99717.06
2023-05-11T10:35:33.363Z,99718.25
2023-05-11T10:38:00.818Z,99729.22
2023-05-11T10:40:27.449Z,99717.09
2023-05-11T10:43:14.967Z,99714.34
2023-05-11T10:46:00.345Z,99713.34
2023-05-11T10:48:42.833Z,99715.22
2023-05-11T10:51:23.174Z,99713.59
2023-05-11T10:54:27.592Z,99724.81
2023-05-11T10:57:07.010Z,99719.94
2023-05-11T10:59:48.644Z,99710.31
2023-05-11T11:02:17.094Z,99720.88
2023-05-11T11:04:51.837Z,99723.69
2023-05-11T11:07:19.730Z,99713.22
2023-05-11T11:09:56.319Z,99715.16
2023-05-11T11:12:24.519Z,99718.69
2023-05-11T11:14:54.984Z,99727.81
2023-05-11T11:17:23.378Z,99720.16
2023-05-11T11:19:49.765Z,99741.50
2023-05-11T11:22:34.659Z,99722.78
2023-05-11T11:25:02.286Z,99721.56
2023-05-11T11:27:41.017Z,99716.97
2023-05-11T11:30:23.086Z,99726.19
2023-05-11T11:32:52.028Z,99706.75
2023-05-11T11:35:43.527Z,99721.41
2023-05-11T11:38:16.219Z,99710.59
2023-05-11T11:40:51.261Z,99724.56
2023-05-11T11:43:24.627Z,99717.00
2023-05-11T11:45:55.925Z,99708.66
2023-05-11T11:48:33.374Z,99723.13
2023-05-11T11:51:08.507Z,99718.13
2023-05-11T11:53:38.167Z,99718.69
2023-05-11T11:56:06.296Z,99704.78
2023-05-11T11:58:42.424Z,99707.38
2023-05-11T12:01:13.607Z,99717.66
2023-05-11T12:03:43.978Z,99739.63
2023-05-11T12:06:11.348Z,99727.88
2023-05-11T12:08:39.070Z,99734.19
2023-05-11T12:11:06.215Z,99741.72
2023-05-11T12:13:33.304Z,99729.16
2023-05-11T12:16:17.482Z,99736.06
2023-05-11T12:18:54.593Z,99734.75
2023-05-11T12:21:27.686Z,99735.97
2023-05-11T12:23:58.516Z,99732.78
2023-05-11T12:26:26.294Z,99736.59
2023-05-11T12:29:06.847Z,99739.06
2023-05-11T12:31:37.258Z,99735.28
2023-05-11T12:34:03.771Z,99747.47
2023-05-11T12:36:30.455Z,99742.63
2023-05-11T12:38:56.907Z,99741.31
2023-05-11T12:41:23.958Z,99740.66
2023-05-11T12:43:51.003Z,99749.31
2023-05-11T12:46:18.316Z,99733.94
2023-05-11T12:48:46.616Z,99740.13
2023-05-11T12:51:13.498Z,99746.59
2023-05-11T12:53:41.244Z,99747.34
2023-05-11T12:56:08.608Z,99754.91
2023-05-11T12:58:40.073Z,99755.09
2023-05-11T13:01:09.368Z,99745.50
2023-05-11T13:03:36.876Z,99764.47
2023-05-11T13:06:11.869Z,99748.50
2023-05-11T13:08:45.550Z,99744.06
2023-05-11T13:11:23.113Z,99746.97
2023-05-11T13:13:50.378Z,99745.41
2023-05-11T13:16:37.102Z,99741.19
2023-05-11T13:19:06.227Z,99748.72
2023-05-11T13:21:33.437Z,99733.28
2023-05-11T13:24:02.046Z,99736.63
2023-05-11T13:26:31.938Z,99729.50
2023-05-11T13:29:08.750Z,99735.84
2023-05-11T13:31:48.080Z,99732.06
2023-05-11T13:34:15.239Z,99741.00
2023-05-11T13:36:41.970Z,99733.44
2023-05-11T13:39:08.618Z,99733.50
2023-05-11T13:41:35.666Z,99735.84
2023-05-11T13:44:02.803Z,99723.38
2023-05-11T13:46:29.381Z,99729.19
2023-05-11T13:48:55.877Z,99726.47
2023-05-11T13:51:22.820Z,99729.81
2023-05-11T13:53:49.266Z,99728.50
2023-05-11T13:56:16.673Z,99720.06
2023-05-11T13:58:43.295Z,99711.72
2023-05-11T14:01:09.825Z,99719.81
2023-05-11T14:03:36.527Z,99706.41
2023-05-11T14:06:03.462Z,99710.50
2023-05-11T14:08:29.927Z,99706.28
2023-05-11T14:10:56.528Z,99701.97
2023-05-11T14:13:23.792Z,99706.84
2023-05-11T14:15:50.216Z,99703.84
2023-05-11T14:18:16.859Z,99695.69
2023-05-11T14:20:43.368Z,99696.44
2023-05-11T14:23:09.904Z,99703.53
2023-05-11T14:25:36.804Z,99706.34
2023-05-11T14:28:03.311Z,99704.50
2023-05-11T14:30:29.812Z,99693.06
2023-05-11T14:32:57.028Z,99688.09
2023-05-11T14:35:23.548Z,99687.13
2023-05-11T14:37:49.983Z,99694.47
2023-05-11T14:40:16.893Z,99692.16
2023-05-11T14:42:43.430Z,99687.28
2023-05-11T14:45:10.555Z,99694.69
2023-05-11T14:47:37.153Z,99692.84
2023-05-11T14:50:04.460Z,99691.81
2023-05-11T14:52:30.928Z,99679.84
2023-05-11T14:54:57.443Z,99687.22
2023-05-11T14:57:23.967Z,99684.88
2023-05-11T14:59:59.000Z,99682.88
2023-05-11T15:02:26.462Z,99687.31
2023-05-11T15:04:52.972Z,99689.16
2023-05-11T15:07:19.490Z,99692.63
2023-05-11T15:09:45.977Z,99691.03
2023-05-11T15:12:12.567Z,99697.31
2023-05-11T15:14:38.982Z,99683.13
2023-05-11T15:17:05.736Z,99681.38
2023-05-11T15:19:32.200Z,99710.94
2023-05-11T15:21:58.725Z,99692.28
2023-05-11T15:24:25.241Z,99710.50
2023-05-11T15:26:51.731Z,99710.81
2023-05-11T15:29:19.088Z,99711.38
2023-05-11T15:31:45.806Z,99712.34
2023-05-11T15:34:12.354Z,99715.00
2023-05-11T15:36:39.806Z,99715.44
2023-05-11T15:39:06.702Z,99715.81
2023-05-11T15:41:34.113Z,99722.84
2023-05-11T15:44:00.541Z,99721.84
2023-05-11T15:46:27.274Z,99722.25
2023-05-11T15:48:54.633Z,99714.78
2023-05-11T15:51:21.783Z,99720.75
2023-05-11T15:53:48.186Z,99723.53
2023-05-11T15:56:14.597Z,99727.06
2023-05-11T15:58:41.011Z,99724.72
2023-05-11T16:01:07.515Z,99729.81
2023-05-11T16:03:34.133Z,99721.19
2023-05-11T16:06:00.793Z,99726.06
2023-05-11T16:08:27.242Z,99720.81
2023-05-11T16:10:53.835Z,99727.88
2023-05-11T16:13:20.360Z,99726.41
2023-05-11T16:15:46.899Z,99733.75
2023-05-11T16:18:14.288Z,99728.22
2023-05-11T16:20:40.912Z,99722.19
2023-05-11T16:23:07.568Z,99730.72
2023-05-11T16:25:33.934Z,99724.69
2023-05-11T16:28:00.742Z,99732.75
2023-05-11T16:30:27.741Z,99727.50
2023-05-11T16:32:54.444Z,99730.78
2023-05-11T16:35:21.223Z,99732.88
2023-05-11T16:37:48.307Z,99722.88
2023-05-11T16:40:18.298Z,99730.66
2023-05-11T16:42:46.771Z,99729.31
2023-05-11T16:45:13.267Z,99724.88
2023-05-11T16:47:39.861Z,99725.19
2023-05-11T16:50:06.726Z,99726.00
2023-05-11T16:52:33.833Z,99725.13
2023-05-11T16:55:00.310Z,99727.31
2023-05-11T16:57:26.898Z,99740.31
2023-05-11T16:59:53.506Z,99736.31
2023-05-11T17:02:20.078Z,99734.72
2023-05-11T17:04:46.663Z,99736.25
2023-05-11T17:07:14.776Z,99744.41
2023-05-11T17:09:41.649Z,99746.84
2023-05-11T17:12:09.846Z,99742.38
2023-05-11T17:14:36.707Z,99749.72
2023-05-11T17:17:07.530Z,99748.06
2023-05-11T17:19:34.548Z,99750.91
2023-05-11T17:22:01.265Z,99759.59
2023-05-11T17:24:28.497Z,99748.69
2023-05-11T17:26:55.277Z,99756.66
2023-05-11T17:29:21.715Z,99753.00
2023-05-11T17:31:50.317Z,99755.59
2023-05-11T17:34:17.888Z,99751.91
2023-05-11T17:36:44.616Z,99761.25
2023-05-11T17:39:11.925Z,99757.63
2023-05-11T17:41:38.815Z,99756.94
2023-05-11T17:44:05.856Z,99767.81
2023-05-11T17:46:32.604Z,99770.31
2023-05-11T17:48:59.110Z,99766.31
2023-05-11T17:51:25.866Z,99773.19
2023-05-11T17:53:52.283Z,99784.16
2023-05-11T17:56:19.177Z,99777.34
2023-05-11T17:58:45.770Z,99780.22
2023-05-11T18:01:16.591Z,99783.47
2023-05-11T18:03:43.832Z,99783.97
2023-05-11T18:06:10.592Z,99788.81
2023-05-11T18:08:37.001Z,99788.44
2023-05-11T18:11:03.864Z,99792.91
2023-05-11T18:13:31.591Z,99797.03
2023-05-11T18:16:01.007Z,99796.22
2023-05-11T18:18:27.454Z,99799.53
2023-05-11T18:20:54.127Z,99804.34
2023-05-11T18:23:20.849Z,99803.63
2023-05-11T18:25:48.466Z,99805.66
2023-05-11T18:28:15.052Z,99812.91
2023-05-11T18:30:41.639Z,99809.31
2023-05-11T18:33:09.756Z,99817.81
2023-05-11T18:35:38.929Z,99815.44
2023-05-11T18:38:05.672Z,99814.63
2023-05-11T18:40:32.172Z,99818.25
2023-05-11T18:42:58.591Z,99819.84
2023-05-11T18:45:25.175Z,99827.16
2023-05-11T18:47:51.872Z,99830.81
2023-05-11T18:50:18.439Z,99833.22
2023-05-11T18:52:45.220Z,99830.41
2023-05-11T18:55:11.839Z,99834.44
2023-05-11T18:57:39.678Z,99836.91
2023-05-11T19:00:06.761Z,99834.13
2023-05-11T19:02:34.018Z,99834.56
2023-05-11T19:05:01.269Z,99842.66
2023-05-11T19:07:28.553Z,99849.94
2023-05-11T19:09:55.262Z,99852.75
2023-05-11T19:12:21.868Z,99863.66
2023-05-11T19:14:48.376Z,99860.06
2023-05-11T19:17:14.890Z,99860.03
2023-05-11T19:19:41.978Z,99866.50
2023-05-11T19:22:09.353Z,99868.50
2023-05-11T19:24:36.007Z,99862.88
2023-05-11T19:27:07.906Z,99866.91
2023-05-11T19:29:35.442Z,99860.88
2023-05-11T19:32:02.552Z,99871.31
2023-05-11T19:34:29.070Z,99878.56
2023-05-11T19:36:55.489Z,99878.19
2023-05-11T19:39:21.923Z,99878.19
2023-05-11T19:41:48.436Z,99877.78
2023-05-11T19:44:14.860Z,99883.44
2023-05-11T19:46:46.347Z,99883.41
2023-05-11T19:49:13.751Z,99883.03
2023-05-11T19:51:40.373Z,99881.81
2023-05-11T19:54:06.829Z,99884.63
2023-05-11T19:56:33.781Z,99886.22
2023-05-11T19:59:00.460Z,99893.47
2023-05-11T20:01:27.273Z,99883.78
2023-05-11T20:03:53.969Z,99892.25
2023-05-11T20:06:20.569Z,99882.97
2023-05-11T20:08:48.811Z,99888.22
2023-05-11T20:11:15.580Z,99882.59
2023-05-11T20:13:43.886Z,99886.59
2023-05-11T20:16:10.757Z,99885.75
2023-05-11T20:18:37.431Z,99887.34
2023-05-11T20:21:04.303Z,99885.34
2023-05-11T20:23:30.725Z,99884.94
2023-05-11T20:25:57.185Z,99879.28
2023-05-11T20:28:27.111Z,99871.25
2023-05-11T20:30:55.125Z,99886.53
2023-05-11T20:35:53.186Z,99890.88
2023-05-11T20:38:20.203Z,99887.63
2023-05-11T20:40:46.656Z,99891.59
2023-05-11T20:43:14.773Z,99884.38
2023-05-11T20:45:41.817Z,99883.97
2023-05-11T20:48:08.539Z,99889.59
2023-05-11T20:50:35.032Z,99881.97
2023-05-11T20:53:01.529Z,99879.97
2023-05-11T20:55:28.809Z,99877.94
2023-05-11T20:57:55.275Z,99880.34
2023-05-11T21:00:22.014Z,99880.34
2023-05-11T21:02:49.020Z,99875.09
2023-05-11T21:05:15.640Z,99881.13
2023-05-11T21:07:43.098Z,99871.50
2023-05-11T21:10:11.504Z,99872.69
2023-05-11T21:12:37.927Z,99872.28
2023-05-11T21:15:04.820Z,99877.09
2023-05-11T21:17:31.394Z,99874.72
2023-05-11T21:19:57.847Z,99871.47
2023-05-11T21:22:24.298Z,99876.72
2023-05-11T21:24:50.683Z,99875.91
2023-05-11T21:27:17.263Z,99874.28
2023-05-11T21:29:43.829Z,99874.31
2023-05-11T21:32:10.489Z,99871.91
2023-05-11T21:34:37.009Z,99877.50
2023-05-11T21:37:03.601Z,99876.69
2023-05-11T21:39:30.005Z,99879.06
2023-05-11T21:41:56.907Z,99881.09
2023-05-11T21:44:23.417Z,99879.53
2023-05-11T21:46:50.473Z,99885.91
2023-05-11T21:49:17.015Z,99875.03
2023-05-11T21:51:43.620Z,99873.81
2023-05-11T21:54:10.185Z,99884.22
2023-05-11T21:56:36.901Z,99886.56
2023-05-11T21:59:03.534Z,99885.84
2023-05-11T22:01:29.992Z,99893.44
2023-05-11T22:03:56.756Z,99898.69
2023-05-11T22:06:23.335Z,99891.75
2023-05-11T22:08:49.698Z,99896.56
2023-05-11T22:11:16.129Z,99903.34
2023-05-11T22:13:43.030Z,99895.69
2023-05-11T22:16:09.432Z,99897.25
2023-05-11T22:18:36.009Z,99896.84
2023-05-11T22:21:02.747Z,99898.81
2023-05-11T22:23:29.258Z,99897.97
2023-05-11T22:25:55.659Z,99896.78
2023-05-11T22:28:22.239Z,99892.38
2023-05-11T22:30:48.641Z,99885.94
2023-05-11T22:33:15.030Z,99885.09
2023-05-11T22:35:42.436Z,99880.69
2023-05-11T22:38:08.896Z,99889.09
2023-05-11T22:40:35.348Z,99882.56
2023-05-11T22:43:01.841Z,99886.16
2023-05-11T22:45:28.261Z,99884.91
2023-05-11T22:47:54.728Z,99883.28
2023-05-11T22:50:21.451Z,99887.28
2023-05-11T22:52:48.143Z,99888.88
2023-05-11T22:55:14.691Z,99886.00
2023-05-11T22:57:41.556Z,99891.28
2023-05-11T23:00:11.645Z,99900.03
2023-05-11T23:02:38.357Z,99899.59
2023-05-11T23:05:05.361Z,99897.66
2023-05-11T23:07:31.803Z,99896.06
2023-05-11T23:09:58.302Z,99887.16
2023-05-11T23:12:24.788Z,99892.31
2023-05-11T23:14:52.416Z,99882.31
2023-05-11T23:17:22.243Z,99880.66
2023-05-11T23:19:49.470Z,99884.59
2023-05-11T23:22:16.007Z,99881.84
2023-05-11T23:24:42.761Z,99882.88
2023-05-11T23:27:09.828Z,99885.81
2023-05-11T23:29:37.259Z,99881.63
2023-05-11T23:32:04.239Z,99888.47
2023-05-11T23:34:30.658Z,99879.34
2023-05-11T23:36:57.170Z,99882.59
2023-05-11T23:39:24.120Z,99874.63
2023-05-11T23:41:50.872Z,99873.78
2023-05-11T23:44:17.924Z,99874.59
2023-05-11T23:46:44.844Z,99882.25
2023-05-11T23:49:11.370Z,99880.19
2023-05-11T23:51:37.806Z,99878.56
2023-05-11T23:54:04.425Z,99880.41
2023-05-11T23:56:30.930Z,99883.13
2023-05-11T23:58:57.428Z,99890.31
